createdAt,value
2022-12-04T00:04:04.406Z,64.1
2022-12-04T00:32:46.187Z,64.14
2022-12-04T01:01:33.560Z,64.21
2022-12-04T01:30:15.445Z,64.24
2022-12-04T01:59:00.474Z,64.32
2022-12-04T02:27:47.253Z,64.35
2022-12-04T02:56:34.758Z,64.39
2022-12-04T03:25:21.405Z,64.41
2022-12-04T03:54:04.811Z,64.46
2022-12-04T04:22:56.948Z,64.44
2022-12-04T04:51:22.482Z,64.44
2022-12-04T05:20:06.390Z,64.41
2022-12-04T05:48:51.063Z,64.31
2022-12-04T06:17:39.206Z,64.08
2022-12-04T06:46:28.976Z,63.95
2022-12-04T07:15:07.711Z,63.86
2022-12-04T07:43:49.196Z,63.8
2022-12-04T08:12:38.205Z,63.86
2022-12-04T08:41:25.175Z,63.92
2022-12-04T09:10:01.494Z,64.2
2022-12-04T09:38:29.501Z,64.23
2022-12-04T10:07:08.696Z,64.77
2022-12-04T10:35:50.151Z,64.51
2022-12-04T11:04:25.018Z,64.5
2022-12-04T11:33:04.424Z,64.68
2022-12-04T12:01:46.783Z,64.62
2022-12-04T12:30:19.290Z,64.87
2022-12-04T12:59:11.004Z,64.99
2022-12-04T13:27:42.238Z,64.72
2022-12-04T13:56:16.020Z,64.53
2022-12-04T14:24:28.972Z,64.63
2022-12-04T14:53:00.642Z,64.63
2022-12-04T15:21:37.594Z,64.54
2022-12-04T15:50:22.360Z,64.45
2022-12-04T16:18:50.441Z,64.32
2022-12-04T16:47:31.247Z,64.24
2022-12-04T17:16:04.147Z,64.37
2022-12-04T17:44:41.588Z,64.23
2022-12-04T18:13:16.680Z,64.15
2022-12-04T18:41:51.081Z,64.08
2022-12-04T19:10:32.396Z,64.19
2022-12-04T19:39:04.672Z,64.11
2022-12-04T20:07:38.877Z,64.03
2022-12-04T20:36:09.364Z,63.98
2022-12-04T21:04:50.729Z,63.93
2022-12-04T21:33:30.278Z,64.06
2022-12-04T22:02:07.849Z,64.02
2022-12-04T22:30:48.102Z,64.13
2022-12-04T22:59:25.426Z,64.29
2022-12-04T23:28:03.113Z,64.42
2022-12-04T23:56:45.704Z,64.53
